sensor_id;sensor_type;location;lat;lon;timestamp;P1;durP1;ratioP1;P2;durP2;ratioP2
12429;SDS011;6279;42.192;24.326;2023-07-13T00:00:36;8.45;;;5.90;;
12429;SDS011;6279;42.192;24.326;2023-07-13T00:03:02;6.25;;;5.57;;
12429;SDS011;6279;42.192;24.326;2023-07-13T00:05:28;12.02;;;5.72;;
12429;SDS011;6279;42.192;24.326;2023-07-13T00:07:53;9.70;;;5.68;;
12429;SDS011;6279;42.192;24.326;2023-07-13T00:10:19;9.35;;;5.53;;
12429;SDS011;6279;42.192;24.326;2023-07-13T00:12:45;9.05;;;6.00;;
12429;SDS011;6279;42.192;24.326;2023-07-13T00:15:14;7.22;;;5.85;;
12429;SDS011;6279;42.192;24.326;2023-07-13T00:17:48;6.15;;;5.55;;
12429;SDS011;6279;42.192;24.326;2023-07-13T00:20:15;6.22;;;5.63;;
12429;SDS011;6279;42.192;24.326;2023-07-13T00:22:40;6.53;;;5.50;;
12429;SDS011;6279;42.192;24.326;2023-07-13T00:25:06;7.45;;;5.32;;
12429;SDS011;6279;42.192;24.326;2023-07-13T00:27:33;8.50;;;5.32;;
12429;SDS011;6279;42.192;24.326;2023-07-13T00:29:58;5.47;;;4.97;;
12429;SDS011;6279;42.192;24.326;2023-07-13T00:32:24;6.13;;;5.53;;
12429;SDS011;6279;42.192;24.326;2023-07-13T00:34:54;7.27;;;5.70;;
12429;SDS011;6279;42.192;24.326;2023-07-13T00:37:19;6.67;;;5.53;;
12429;SDS011;6279;42.192;24.326;2023-07-13T00:39:44;6.23;;;5.17;;
12429;SDS011;6279;42.192;24.326;2023-07-13T00:42:10;8.45;;;5.60;;
12429;SDS011;6279;42.192;24.326;2023-07-13T00:44:36;5.80;;;5.30;;
12429;SDS011;6279;42.192;24.326;2023-07-13T00:47:01;8.57;;;5.40;;
12429;SDS011;6279;42.192;24.326;2023-07-13T00:49:27;7.80;;;4.90;;
12429;SDS011;6279;42.192;24.326;2023-07-13T00:51:59;6.00;;;5.40;;
12429;SDS011;6279;42.192;24.326;2023-07-13T00:54:33;6.03;;;4.80;;
12429;SDS011;6279;42.192;24.326;2023-07-13T00:57:04;5.53;;;4.40;;
12429;SDS011;6279;42.192;24.326;2023-07-13T00:59:33;9.30;;;4.90;;
12429;SDS011;6279;42.192;24.326;2023-07-13T01:02:00;7.27;;;4.90;;
12429;SDS011;6279;42.192;24.326;2023-07-13T01:04:26;6.13;;;4.30;;
12429;SDS011;6279;42.192;24.326;2023-07-13T01:06:51;5.50;;;4.67;;
12429;SDS011;6279;42.192;24.326;2023-07-13T01:09:19;8.00;;;4.90;;
12429;SDS011;6279;42.192;24.326;2023-07-13T01:11:45;5.50;;;4.70;;
12429;SDS011;6279;42.192;24.326;2023-07-13T01:14:10;6.80;;;4.72;;
12429;SDS011;6279;42.192;24.326;2023-07-13T01:16:36;6.77;;;4.90;;
12429;SDS011;6279;42.192;24.326;2023-07-13T01:19:09;4.93;;;4.43;;
12429;SDS011;6279;42.192;24.326;2023-07-13T01:21:44;6.13;;;4.83;;
12429;SDS011;6279;42.192;24.326;2023-07-13T01:24:15;7.63;;;4.80;;
12429;SDS011;6279;42.192;24.326;2023-07-13T01:26:40;6.57;;;5.40;;
12429;SDS011;6279;42.192;24.326;2023-07-13T01:29:05;8.23;;;5.00;;
12429;SDS011;6279;42.192;24.326;2023-07-13T01:31:32;6.10;;;5.30;;
12429;SDS011;6279;42.192;24.326;2023-07-13T01:33:58;5.67;;;5.03;;
12429;SDS011;6279;42.192;24.326;2023-07-13T01:36:23;5.60;;;4.70;;
12429;SDS011;6279;42.192;24.326;2023-07-13T01:38:49;7.40;;;4.77;;
12429;SDS011;6279;42.192;24.326;2023-07-13T01:41:14;6.10;;;4.63;;
12429;SDS011;6279;42.192;24.326;2023-07-13T01:43:39;7.17;;;5.13;;
12429;SDS011;6279;42.192;24.326;2023-07-13T01:46:05;5.20;;;4.70;;
12429;SDS011;6279;42.192;24.326;2023-07-13T01:48:30;7.17;;;4.87;;
12429;SDS011;6279;42.192;24.326;2023-07-13T01:50:56;8.97;;;4.90;;
12429;SDS011;6279;42.192;24.326;2023-07-13T01:53:21;5.93;;;5.33;;
12429;SDS011;6279;42.192;24.326;2023-07-13T01:55:46;6.77;;;5.30;;
12429;SDS011;6279;42.192;24.326;2023-07-13T01:58:12;7.83;;;5.97;;
12429;SDS011;6279;42.192;24.326;2023-07-13T02:00:37;8.13;;;5.67;;
12429;SDS011;6279;42.192;24.326;2023-07-13T02:03:03;7.67;;;5.87;;
12429;SDS011;6279;42.192;24.326;2023-07-13T02:05:28;6.57;;;5.87;;
12429;SDS011;6279;42.192;24.326;2023-07-13T02:07:54;7.43;;;5.93;;
12429;SDS011;6279;42.192;24.326;2023-07-13T02:10:19;10.50;;;6.20;;
12429;SDS011;6279;42.192;24.326;2023-07-13T02:12:45;7.80;;;6.97;;
12429;SDS011;6279;42.192;24.326;2023-07-13T02:15:10;5.93;;;5.43;;
12429;SDS011;6279;42.192;24.326;2023-07-13T02:17:36;7.37;;;5.80;;
12429;SDS011;6279;42.192;24.326;2023-07-13T02:20:02;6.93;;;5.63;;
12429;SDS011;6279;42.192;24.326;2023-07-13T02:22:29;6.97;;;5.67;;
12429;SDS011;6279;42.192;24.326;2023-07-13T02:24:55;8.20;;;5.70;;
12429;SDS011;6279;42.192;24.326;2023-07-13T02:27:20;7.50;;;5.23;;
12429;SDS011;6279;42.192;24.326;2023-07-13T02:29:46;7.23;;;5.57;;
12429;SDS011;6279;42.192;24.326;2023-07-13T02:32:11;6.63;;;5.93;;
12429;SDS011;6279;42.192;24.326;2023-07-13T02:34:37;5.73;;;5.23;;
12429;SDS011;6279;42.192;24.326;2023-07-13T02:37:02;7.60;;;5.90;;
12429;SDS011;6279;42.192;24.326;2023-07-13T02:39:28;7.03;;;5.90;;
12429;SDS011;6279;42.192;24.326;2023-07-13T02:41:53;7.93;;;5.80;;
12429;SDS011;6279;42.192;24.326;2023-07-13T02:44:18;9.77;;;5.73;;
12429;SDS011;6279;42.192;24.326;2023-07-13T02:46:44;7.90;;;5.53;;
12429;SDS011;6279;42.192;24.326;2023-07-13T02:49:09;9.97;;;5.77;;
12429;SDS011;6279;42.192;24.326;2023-07-13T02:51:35;7.47;;;5.87;;
12429;SDS011;6279;42.192;24.326;2023-07-13T02:54:01;7.47;;;5.47;;
12429;SDS011;6279;42.192;24.326;2023-07-13T02:56:28;8.57;;;5.73;;
12429;SDS011;6279;42.192;24.326;2023-07-13T02:58:55;6.87;;;5.33;;
12429;SDS011;6279;42.192;24.326;2023-07-13T03:01:20;7.03;;;5.83;;
12429;SDS011;6279;42.192;24.326;2023-07-13T03:03:47;7.23;;;5.20;;
12429;SDS011;6279;42.192;24.326;2023-07-13T03:06:14;6.77;;;5.53;;
12429;SDS011;6279;42.192;24.326;2023-07-13T03:08:40;6.03;;;5.40;;
12429;SDS011;6279;42.192;24.326;2023-07-13T03:11:07;6.73;;;5.60;;
12429;SDS011;6279;42.192;24.326;2023-07-13T03:13:36;7.83;;;5.80;;
12429;SDS011;6279;42.192;24.326;2023-07-13T03:16:03;11.40;;;6.00;;
12429;SDS011;6279;42.192;24.326;2023-07-13T03:18:28;9.17;;;5.57;;
12429;SDS011;6279;42.192;24.326;2023-07-13T03:20:54;6.70;;;5.63;;
12429;SDS011;6279;42.192;24.326;2023-07-13T03:23:20;15.10;;;6.30;;
12429;SDS011;6279;42.192;24.326;2023-07-13T03:25:47;7.20;;;6.03;;
12429;SDS011;6279;42.192;24.326;2023-07-13T03:28:13;6.20;;;5.60;;
12429;SDS011;6279;42.192;24.326;2023-07-13T03:30:39;8.77;;;6.03;;
12429;SDS011;6279;42.192;24.326;2023-07-13T03:33:05;9.53;;;5.83;;
12429;SDS011;6279;42.192;24.326;2023-07-13T03:35:30;7.63;;;5.40;;
12429;SDS011;6279;42.192;24.326;2023-07-13T03:37:57;10.67;;;6.70;;
12429;SDS011;6279;42.192;24.326;2023-07-13T03:40:24;8.27;;;5.70;;
12429;SDS011;6279;42.192;24.326;2023-07-13T03:42:50;8.47;;;5.80;;
12429;SDS011;6279;42.192;24.326;2023-07-13T03:45:15;8.80;;;5.93;;
12429;SDS011;6279;42.192;24.326;2023-07-13T03:47:40;9.03;;;6.00;;
12429;SDS011;6279;42.192;24.326;2023-07-13T03:50:06;21.63;;;6.80;;
12429;SDS011;6279;42.192;24.326;2023-07-13T03:52:32;13.93;;;6.13;;
12429;SDS011;6279;42.192;24.326;2023-07-13T03:54:57;12.47;;;6.17;;
12429;SDS011;6279;42.192;24.326;2023-07-13T03:57:23;7.20;;;6.10;;
12429;SDS011;6279;42.192;24.326;2023-07-13T03:59:48;15.27;;;7.87;;
12429;SDS011;6279;42.192;24.326;2023-07-13T04:02:13;10.77;;;6.47;;
12429;SDS011;6279;42.192;24.326;2023-07-13T04:04:39;11.20;;;6.77;;
12429;SDS011;6279;42.192;24.326;2023-07-13T04:07:06;9.60;;;6.13;;
12429;SDS011;6279;42.192;24.326;2023-07-13T04:09:33;8.60;;;6.33;;
12429;SDS011;6279;42.192;24.326;2023-07-13T04:11:59;20.23;;;16.87;;
12429;SDS011;6279;42.192;24.326;2023-07-13T04:14:24;20.40;;;16.07;;
12429;SDS011;6279;42.192;24.326;2023-07-13T04:16:49;13.83;;;7.10;;
12429;SDS011;6279;42.192;24.326;2023-07-13T04:19:15;8.80;;;7.17;;
12429;SDS011;6279;42.192;24.326;2023-07-13T04:21:40;8.07;;;6.17;;
12429;SDS011;6279;42.192;24.326;2023-07-13T04:24:06;14.67;;;6.63;;
12429;SDS011;6279;42.192;24.326;2023-07-13T04:26:32;11.40;;;6.85;;
12429;SDS011;6279;42.192;24.326;2023-07-13T04:29:00;14.00;;;6.63;;
12429;SDS011;6279;42.192;24.326;2023-07-13T04:31:28;12.65;;;6.80;;
12429;SDS011;6279;42.192;24.326;2023-07-13T04:33:54;11.30;;;6.32;;
12429;SDS011;6279;42.192;24.326;2023-07-13T04:36:19;8.55;;;6.45;;
12429;SDS011;6279;42.192;24.326;2023-07-13T04:38:45;11.82;;;6.72;;
12429;SDS011;6279;42.192;24.326;2023-07-13T04:41:10;9.48;;;6.72;;
12429;SDS011;6279;42.192;24.326;2023-07-13T04:43:36;8.32;;;6.22;;
12429;SDS011;6279;42.192;24.326;2023-07-13T04:46:05;12.63;;;7.03;;
12429;SDS011;6279;42.192;24.326;2023-07-13T04:48:38;9.45;;;6.70;;
12429;SDS011;6279;42.192;24.326;2023-07-13T04:51:04;9.00;;;6.50;;
12429;SDS011;6279;42.192;24.326;2023-07-13T04:53:30;9.10;;;6.90;;
12429;SDS011;6279;42.192;24.326;2023-07-13T04:55:57;7.57;;;6.60;;
12429;SDS011;6279;42.192;24.326;2023-07-13T04:58:23;11.23;;;7.30;;
12429;SDS011;6279;42.192;24.326;2023-07-13T05:00:49;12.95;;;6.70;;
12429;SDS011;6279;42.192;24.326;2023-07-13T05:03:15;9.13;;;6.28;;
12429;SDS011;6279;42.192;24.326;2023-07-13T05:05:40;9.52;;;6.25;;
12429;SDS011;6279;42.192;24.326;2023-07-13T05:08:05;12.13;;;6.25;;
12429;SDS011;6279;42.192;24.326;2023-07-13T05:10:32;9.75;;;6.22;;
12429;SDS011;6279;42.192;24.326;2023-07-13T05:12:58;8.20;;;5.97;;
12429;SDS011;6279;42.192;24.326;2023-07-13T05:15:23;8.73;;;5.32;;
12429;SDS011;6279;42.192;24.326;2023-07-13T05:17:50;11.02;;;6.07;;
12429;SDS011;6279;42.192;24.326;2023-07-13T05:20:16;10.38;;;5.50;;
12429;SDS011;6279;42.192;24.326;2023-07-13T05:22:43;7.90;;;5.70;;
12429;SDS011;6279;42.192;24.326;2023-07-13T05:25:08;6.13;;;5.53;;
12429;SDS011;6279;42.192;24.326;2023-07-13T05:27:34;11.57;;;5.47;;
12429;SDS011;6279;42.192;24.326;2023-07-13T05:30:01;7.95;;;5.45;;
12429;SDS011;6279;42.192;24.326;2023-07-13T05:32:30;6.55;;;5.32;;
12429;SDS011;6279;42.192;24.326;2023-07-13T05:34:55;8.80;;;5.45;;
12429;SDS011;6279;42.192;24.326;2023-07-13T05:37:21;8.20;;;5.10;;
12429;SDS011;6279;42.192;24.326;2023-07-13T05:39:46;7.57;;;5.30;;
12429;SDS011;6279;42.192;24.326;2023-07-13T05:42:11;8.05;;;5.57;;
12429;SDS011;6279;42.192;24.326;2023-07-13T05:44:37;8.88;;;5.43;;
12429;SDS011;6279;42.192;24.326;2023-07-13T05:47:02;9.10;;;5.50;;
12429;SDS011;6279;42.192;24.326;2023-07-13T05:49:28;8.55;;;5.15;;
12429;SDS011;6279;42.192;24.326;2023-07-13T05:51:55;6.43;;;5.32;;
12429;SDS011;6279;42.192;24.326;2023-07-13T05:54:21;9.30;;;5.13;;
12429;SDS011;6279;42.192;24.326;2023-07-13T05:56:46;7.55;;;5.28;;
12429;SDS011;6279;42.192;24.326;2023-07-13T05:59:12;6.60;;;5.20;;
12429;SDS011;6279;42.192;24.326;2023-07-13T06:01:37;12.50;;;5.20;;
12429;SDS011;6279;42.192;24.326;2023-07-13T06:04:03;13.45;;;5.43;;
12429;SDS011;6279;42.192;24.326;2023-07-13T06:06:28;10.80;;;5.30;;
12429;SDS011;6279;42.192;24.326;2023-07-13T06:08:54;6.25;;;5.65;;
12429;SDS011;6279;42.192;24.326;2023-07-13T06:11:20;4.90;;;4.50;;
12429;SDS011;6279;42.192;24.326;2023-07-13T06:13:48;9.43;;;5.30;;
12429;SDS011;6279;42.192;24.326;2023-07-13T06:16:13;9.52;;;5.63;;
12429;SDS011;6279;42.192;24.326;2023-07-13T06:18:40;11.15;;;5.72;;
12429;SDS011;6279;42.192;24.326;2023-07-13T06:21:07;8.57;;;5.75;;
12429;SDS011;6279;42.192;24.326;2023-07-13T06:23:32;7.68;;;5.90;;
12429;SDS011;6279;42.192;24.326;2023-07-13T06:25:58;6.72;;;6.03;;
12429;SDS011;6279;42.192;24.326;2023-07-13T06:28:23;8.35;;;6.90;;
12429;SDS011;6279;42.192;24.326;2023-07-13T06:30:49;7.88;;;5.88;;
12429;SDS011;6279;42.192;24.326;2023-07-13T06:33:14;7.40;;;6.60;;
12429;SDS011;6279;42.192;24.326;2023-07-13T06:35:40;12.48;;;6.35;;
12429;SDS011;6279;42.192;24.326;2023-07-13T06:38:05;9.82;;;6.50;;
12429;SDS011;6279;42.192;24.326;2023-07-13T06:40:31;10.48;;;6.20;;
12429;SDS011;6279;42.192;24.326;2023-07-13T06:42:56;7.88;;;6.43;;
12429;SDS011;6279;42.192;24.326;2023-07-13T06:45:22;6.85;;;6.15;;
12429;SDS011;6279;42.192;24.326;2023-07-13T06:47:48;10.48;;;6.20;;
12429;SDS011;6279;42.192;24.326;2023-07-13T06:50:14;8.75;;;6.57;;
12429;SDS011;6279;42.192;24.326;2023-07-13T06:52:40;7.10;;;6.40;;
12429;SDS011;6279;42.192;24.326;2023-07-13T06:55:05;9.52;;;6.82;;
12429;SDS011;6279;42.192;24.326;2023-07-13T06:57:31;7.10;;;6.10;;
12429;SDS011;6279;42.192;24.326;2023-07-13T06:59:56;7.93;;;6.10;;
12429;SDS011;6279;42.192;24.326;2023-07-13T07:02:22;7.50;;;6.07;;
12429;SDS011;6279;42.192;24.326;2023-07-13T07:04:47;7.68;;;6.18;;
12429;SDS011;6279;42.192;24.326;2023-07-13T07:07:13;10.43;;;6.78;;
12429;SDS011;6279;42.192;24.326;2023-07-13T07:09:38;7.93;;;6.38;;
12429;SDS011;6279;42.192;24.326;2023-07-13T07:12:04;7.47;;;6.75;;
12429;SDS011;6279;42.192;24.326;2023-07-13T07:14:29;7.63;;;6.82;;
12429;SDS011;6279;42.192;24.326;2023-07-13T07:16:55;7.07;;;6.45;;
12429;SDS011;6279;42.192;24.326;2023-07-13T07:19:20;7.95;;;6.65;;
12429;SDS011;6279;42.192;24.326;2023-07-13T07:21:46;6.68;;;6.07;;
12429;SDS011;6279;42.192;24.326;2023-07-13T07:24:11;7.40;;;5.63;;
12429;SDS011;6279;42.192;24.326;2023-07-13T07:26:37;7.18;;;6.40;;
12429;SDS011;6279;42.192;24.326;2023-07-13T07:29:02;6.25;;;5.65;;
12429;SDS011;6279;42.192;24.326;2023-07-13T07:31:28;9.45;;;6.68;;
12429;SDS011;6279;42.192;24.326;2023-07-13T07:33:53;7.75;;;5.72;;
12429;SDS011;6279;42.192;24.326;2023-07-13T07:36:19;7.28;;;6.07;;
12429;SDS011;6279;42.192;24.326;2023-07-13T07:38:44;8.07;;;5.93;;
12429;SDS011;6279;42.192;24.326;2023-07-13T07:41:09;6.05;;;4.85;;
12429;SDS011;6279;42.192;24.326;2023-07-13T07:43:35;5.82;;;5.32;;
12429;SDS011;6279;42.192;24.326;2023-07-13T07:46:01;5.95;;;5.18;;
12429;SDS011;6279;42.192;24.326;2023-07-13T07:48:27;5.80;;;4.80;;
12429;SDS011;6279;42.192;24.326;2023-07-13T07:50:52;5.15;;;4.35;;
12429;SDS011;6279;42.192;24.326;2023-07-13T07:53:18;4.68;;;4.25;;
12429;SDS011;6279;42.192;24.326;2023-07-13T07:55:43;5.05;;;4.25;;
12429;SDS011;6279;42.192;24.326;2023-07-13T07:58:10;4.82;;;3.72;;
12429;SDS011;6279;42.192;24.326;2023-07-13T08:00:35;4.70;;;4.03;;
12429;SDS011;6279;42.192;24.326;2023-07-13T08:03:01;5.50;;;4.63;;
12429;SDS011;6279;42.192;24.326;2023-07-13T08:05:26;7.60;;;4.70;;
12429;SDS011;6279;42.192;24.326;2023-07-13T08:07:52;6.57;;;4.70;;
12429;SDS011;6279;42.192;24.326;2023-07-13T08:10:18;6.57;;;4.57;;
12429;SDS011;6279;42.192;24.326;2023-07-13T08:12:43;8.48;;;3.53;;
12429;SDS011;6279;42.192;24.326;2023-07-13T08:15:10;5.03;;;4.32;;
12429;SDS011;6279;42.192;24.326;2023-07-13T08:17:37;6.32;;;4.50;;
12429;SDS011;6279;42.192;24.326;2023-07-13T08:20:02;8.95;;;3.80;;
12429;SDS011;6279;42.192;24.326;2023-07-13T08:22:29;4.53;;;3.88;;
12429;SDS011;6279;42.192;24.326;2023-07-13T08:24:54;5.53;;;3.80;;
12429;SDS011;6279;42.192;24.326;2023-07-13T08:27:22;4.95;;;3.38;;
12429;SDS011;6279;42.192;24.326;2023-07-13T08:29:49;5.72;;;3.50;;
12429;SDS011;6279;42.192;24.326;2023-07-13T08:32:14;5.93;;;2.92;;
12429;SDS011;6279;42.192;24.326;2023-07-13T08:34:40;6.43;;;4.63;;
12429;SDS011;6279;42.192;24.326;2023-07-13T08:37:06;5.93;;;4.75;;
12429;SDS011;6279;42.192;24.326;2023-07-13T08:39:32;4.53;;;3.65;;
12429;SDS011;6279;42.192;24.326;2023-07-13T08:42:00;4.75;;;4.25;;
12429;SDS011;6279;42.192;24.326;2023-07-13T08:47:14;3.95;;;3.08;;
12429;SDS011;6279;42.192;24.326;2023-07-13T08:49:41;3.45;;;2.75;;
12429;SDS011;6279;42.192;24.326;2023-07-13T08:52:17;4.75;;;3.60;;
12429;SDS011;6279;42.192;24.326;2023-07-13T08:55:18;4.38;;;2.88;;
12429;SDS011;6279;42.192;24.326;2023-07-13T08:57:48;3.97;;;3.53;;
12429;SDS011;6279;42.192;24.326;2023-07-13T09:00:19;3.03;;;2.40;;
12429;SDS011;6279;42.192;24.326;2023-07-13T09:02:56;3.58;;;3.08;;
12429;SDS011;6279;42.192;24.326;2023-07-13T09:08:09;3.63;;;2.90;;
12429;SDS011;6279;42.192;24.326;2023-07-13T09:14:03;3.28;;;2.97;;
12429;SDS011;6279;42.192;24.326;2023-07-13T09:16:38;3.10;;;2.70;;
12429;SDS011;6279;42.192;24.326;2023-07-13T09:19:05;4.15;;;3.58;;
12429;SDS011;6279;42.192;24.326;2023-07-13T09:21:39;3.55;;;2.90;;
12429;SDS011;6279;42.192;24.326;2023-07-13T09:27:17;4.28;;;2.95;;
12429;SDS011;6279;42.192;24.326;2023-07-13T09:29:50;4.65;;;3.00;;
12429;SDS011;6279;42.192;24.326;2023-07-13T09:32:49;3.35;;;2.60;;
12429;SDS011;6279;42.192;24.326;2023-07-13T09:35:19;3.70;;;2.85;;
12429;SDS011;6279;42.192;24.326;2023-07-13T09:37:49;5.07;;;2.90;;
12429;SDS011;6279;42.192;24.326;2023-07-13T09:40:24;3.47;;;2.45;;
12429;SDS011;6279;42.192;24.326;2023-07-13T09:42:53;4.57;;;3.03;;
12429;SDS011;6279;42.192;24.326;2023-07-13T09:45:26;3.22;;;2.92;;
12429;SDS011;6279;42.192;24.326;2023-07-13T09:47:58;4.45;;;2.80;;
12429;SDS011;6279;42.192;24.326;2023-07-13T09:50:25;3.25;;;2.80;;
12429;SDS011;6279;42.192;24.326;2023-07-13T09:52:50;3.05;;;2.70;;
12429;SDS011;6279;42.192;24.326;2023-07-13T09:55:30;3.05;;;2.72;;
12429;SDS011;6279;42.192;24.326;2023-07-13T09:58:02;4.90;;;2.95;;
12429;SDS011;6279;42.192;24.326;2023-07-13T10:00:30;4.90;;;3.53;;
12429;SDS011;6279;42.192;24.326;2023-07-13T10:03:09;5.40;;;3.05;;
12429;SDS011;6279;42.192;24.326;2023-07-13T10:05:51;3.58;;;3.28;;
12429;SDS011;6279;42.192;24.326;2023-07-13T10:08:24;3.03;;;2.70;;
12429;SDS011;6279;42.192;24.326;2023-07-13T10:11:29;3.80;;;3.50;;
12429;SDS011;6279;42.192;24.326;2023-07-13T10:13:55;4.75;;;2.50;;
12429;SDS011;6279;42.192;24.326;2023-07-13T10:16:26;4.32;;;2.47;;
12429;SDS011;6279;42.192;24.326;2023-07-13T10:18:58;6.00;;;2.80;;
12429;SDS011;6279;42.192;24.326;2023-07-13T10:21:28;4.40;;;2.60;;
12429;SDS011;6279;42.192;24.326;2023-07-13T10:24:02;3.75;;;2.30;;
12429;SDS011;6279;42.192;24.326;2023-07-13T10:26:35;4.20;;;2.45;;
12429;SDS011;6279;42.192;24.326;2023-07-13T10:29:06;2.55;;;2.35;;
12429;SDS011;6279;42.192;24.326;2023-07-13T10:31:36;3.47;;;2.95;;
12429;SDS011;6279;42.192;24.326;2023-07-13T10:34:03;4.32;;;2.90;;
12429;SDS011;6279;42.192;24.326;2023-07-13T10:37:03;4.22;;;2.95;;
12429;SDS011;6279;42.192;24.326;2023-07-13T10:39:24;6.53;;;2.60;;
12429;SDS011;6279;42.192;24.326;2023-07-13T10:41:54;3.63;;;2.83;;
12429;SDS011;6279;42.192;24.326;2023-07-13T10:44:27;3.60;;;3.25;;
12429;SDS011;6279;42.192;24.326;2023-07-13T10:47:02;5.68;;;2.47;;
12429;SDS011;6279;42.192;24.326;2023-07-13T10:49:33;4.35;;;2.97;;
12429;SDS011;6279;42.192;24.326;2023-07-13T10:52:00;3.05;;;2.80;;
12429;SDS011;6279;42.192;24.326;2023-07-13T10:59:46;6.38;;;2.90;;
12429;SDS011;6279;42.192;24.326;2023-07-13T11:02:35;3.03;;;2.72;;
12429;SDS011;6279;42.192;24.326;2023-07-13T11:05:01;3.08;;;2.78;;
12429;SDS011;6279;42.192;24.326;2023-07-13T11:10:48;4.07;;;3.30;;
12429;SDS011;6279;42.192;24.326;2023-07-13T11:18:41;5.63;;;3.42;;
12429;SDS011;6279;42.192;24.326;2023-07-13T11:21:15;7.35;;;3.75;;
12429;SDS011;6279;42.192;24.326;2023-07-13T11:23:42;8.40;;;3.83;;
12429;SDS011;6279;42.192;24.326;2023-07-13T11:32:22;3.92;;;3.35;;
12429;SDS011;6279;42.192;24.326;2023-07-13T11:34:51;4.68;;;3.58;;
12429;SDS011;6279;42.192;24.326;2023-07-13T11:37:18;5.25;;;3.63;;
12429;SDS011;6279;42.192;24.326;2023-07-13T11:39:44;4.95;;;3.42;;
12429;SDS011;6279;42.192;24.326;2023-07-13T11:42:12;6.60;;;3.70;;
12429;SDS011;6279;42.192;24.326;2023-07-13T11:44:47;6.35;;;3.95;;
12429;SDS011;6279;42.192;24.326;2023-07-13T11:47:17;6.07;;;3.30;;
12429;SDS011;6279;42.192;24.326;2023-07-13T11:49:47;6.63;;;3.75;;
12429;SDS011;6279;42.192;24.326;2023-07-13T11:52:29;6.07;;;4.00;;
12429;SDS011;6279;42.192;24.326;2023-07-13T11:54:59;3.63;;;3.33;;
12429;SDS011;6279;42.192;24.326;2023-07-13T11:57:33;6.25;;;3.42;;
12429;SDS011;6279;42.192;24.326;2023-07-13T12:00:09;5.72;;;3.40;;
12429;SDS011;6279;42.192;24.326;2023-07-13T12:02:40;9.80;;;4.07;;
12429;SDS011;6279;42.192;24.326;2023-07-13T12:05:10;6.50;;;3.95;;
12429;SDS011;6279;42.192;24.326;2023-07-13T12:07:38;4.90;;;3.72;;
12429;SDS011;6279;42.192;24.326;2023-07-13T12:10:17;6.55;;;3.90;;
12429;SDS011;6279;42.192;24.326;2023-07-13T12:12:51;7.47;;;3.70;;
12429;SDS011;6279;42.192;24.326;2023-07-13T12:15:37;4.85;;;3.60;;
12429;SDS011;6279;42.192;24.326;2023-07-13T12:18:22;7.20;;;3.42;;
12429;SDS011;6279;42.192;24.326;2023-07-13T12:20:55;5.47;;;4.25;;
12429;SDS011;6279;42.192;24.326;2023-07-13T12:23:29;11.50;;;6.00;;
12429;SDS011;6279;42.192;24.326;2023-07-13T12:25:58;7.45;;;4.47;;
12429;SDS011;6279;42.192;24.326;2023-07-13T12:28:32;7.13;;;3.67;;
12429;SDS011;6279;42.192;24.326;2023-07-13T12:30:59;7.05;;;3.92;;
12429;SDS011;6279;42.192;24.326;2023-07-13T12:33:29;8.15;;;4.10;;
12429;SDS011;6279;42.192;24.326;2023-07-13T12:35:57;3.92;;;3.50;;
12429;SDS011;6279;42.192;24.326;2023-07-13T12:38:27;6.25;;;3.80;;
12429;SDS011;6279;42.192;24.326;2023-07-13T12:40:53;9.07;;;4.40;;
12429;SDS011;6279;42.192;24.326;2023-07-13T12:43:20;6.57;;;3.55;;
12429;SDS011;6279;42.192;24.326;2023-07-13T12:45:57;7.90;;;4.22;;
12429;SDS011;6279;42.192;24.326;2023-07-13T12:48:28;6.60;;;3.53;;
12429;SDS011;6279;42.192;24.326;2023-07-13T12:50:54;8.35;;;4.22;;
12429;SDS011;6279;42.192;24.326;2023-07-13T12:53:40;7.00;;;3.92;;
12429;SDS011;6279;42.192;24.326;2023-07-13T12:56:08;6.80;;;3.90;;
12429;SDS011;6279;42.192;24.326;2023-07-13T12:58:45;7.38;;;3.90;;
12429;SDS011;6279;42.192;24.326;2023-07-13T13:01:13;8.55;;;4.13;;
12429;SDS011;6279;42.192;24.326;2023-07-13T13:06:17;7.95;;;4.00;;
12429;SDS011;6279;42.192;24.326;2023-07-13T13:08:52;5.88;;;3.75;;
12429;SDS011;6279;42.192;24.326;2023-07-13T13:11:19;7.38;;;3.92;;
12429;SDS011;6279;42.192;24.326;2023-07-13T13:13:46;10.90;;;4.20;;
12429;SDS011;6279;42.192;24.326;2023-07-13T13:16:14;7.72;;;3.90;;
12429;SDS011;6279;42.192;24.326;2023-07-13T13:18:44;7.28;;;3.72;;
12429;SDS011;6279;42.192;24.326;2023-07-13T13:21:10;6.32;;;3.67;;
12429;SDS011;6279;42.192;24.326;2023-07-13T13:23:36;8.38;;;3.85;;
12429;SDS011;6279;42.192;24.326;2023-07-13T13:26:02;11.00;;;3.80;;
12429;SDS011;6279;42.192;24.326;2023-07-13T13:28:28;10.73;;;4.13;;
12429;SDS011;6279;42.192;24.326;2023-07-13T13:30:54;9.88;;;5.47;;
12429;SDS011;6279;42.192;24.326;2023-07-13T13:33:20;12.63;;;7.50;;
12429;SDS011;6279;42.192;24.326;2023-07-13T13:35:46;8.98;;;4.32;;
12429;SDS011;6279;42.192;24.326;2023-07-13T13:38:30;6.80;;;4.10;;
12429;SDS011;6279;42.192;24.326;2023-07-13T13:40:57;6.93;;;4.22;;
12429;SDS011;6279;42.192;24.326;2023-07-13T13:43:25;8.43;;;4.00;;
12429;SDS011;6279;42.192;24.326;2023-07-13T13:45:52;7.78;;;4.20;;
12429;SDS011;6279;42.192;24.326;2023-07-13T13:48:29;5.75;;;4.13;;
12429;SDS011;6279;42.192;24.326;2023-07-13T13:50:57;6.85;;;3.50;;
12429;SDS011;6279;42.192;24.326;2023-07-13T13:53:23;7.20;;;4.38;;
12429;SDS011;6279;42.192;24.326;2023-07-13T13:55:49;7.60;;;4.20;;
12429;SDS011;6279;42.192;24.326;2023-07-13T13:58:15;6.47;;;4.20;;
12429;SDS011;6279;42.192;24.326;2023-07-13T14:00:40;9.65;;;4.10;;
12429;SDS011;6279;42.192;24.326;2023-07-13T14:03:15;7.25;;;4.80;;
12429;SDS011;6279;42.192;24.326;2023-07-13T14:05:43;7.75;;;3.95;;
12429;SDS011;6279;42.192;24.326;2023-07-13T14:08:15;11.20;;;4.50;;
12429;SDS011;6279;42.192;24.326;2023-07-13T14:10:42;7.95;;;4.10;;
12429;SDS011;6279;42.192;24.326;2023-07-13T14:13:15;6.85;;;3.80;;
12429;SDS011;6279;42.192;24.326;2023-07-13T14:15:43;7.72;;;4.00;;
12429;SDS011;6279;42.192;24.326;2023-07-13T14:18:08;6.05;;;4.20;;
12429;SDS011;6279;42.192;24.326;2023-07-13T14:20:34;7.72;;;3.63;;
12429;SDS011;6279;42.192;24.326;2023-07-13T14:22:59;7.68;;;3.97;;
12429;SDS011;6279;42.192;24.326;2023-07-13T14:25:25;5.28;;;3.92;;
12429;SDS011;6279;42.192;24.326;2023-07-13T14:27:53;6.30;;;4.28;;
12429;SDS011;6279;42.192;24.326;2023-07-13T14:30:21;9.05;;;4.00;;
12429;SDS011;6279;42.192;24.326;2023-07-13T14:32:47;5.13;;;3.95;;
12429;SDS011;6279;42.192;24.326;2023-07-13T14:35:14;7.03;;;4.13;;
12429;SDS011;6279;42.192;24.326;2023-07-13T14:37:41;5.93;;;3.95;;
12429;SDS011;6279;42.192;24.326;2023-07-13T14:40:16;9.00;;;4.38;;
12429;SDS011;6279;42.192;24.326;2023-07-13T14:42:46;7.40;;;4.25;;
12429;SDS011;6279;42.192;24.326;2023-07-13T14:45:16;9.70;;;4.30;;
12429;SDS011;6279;42.192;24.326;2023-07-13T14:47:43;6.97;;;4.47;;
12429;SDS011;6279;42.192;24.326;2023-07-13T14:50:13;8.63;;;4.40;;
12429;SDS011;6279;42.192;24.326;2023-07-13T14:52:55;10.65;;;4.75;;
12429;SDS011;6279;42.192;24.326;2023-07-13T14:55:21;8.68;;;4.60;;
12429;SDS011;6279;42.192;24.326;2023-07-13T14:57:46;8.38;;;4.40;;
12429;SDS011;6279;42.192;24.326;2023-07-13T15:00:13;8.27;;;4.25;;
12429;SDS011;6279;42.192;24.326;2023-07-13T15:02:40;8.15;;;4.07;;
12429;SDS011;6279;42.192;24.326;2023-07-13T15:05:17;8.32;;;4.20;;
12429;SDS011;6279;42.192;24.326;2023-07-13T15:07:45;5.97;;;4.03;;
12429;SDS011;6279;42.192;24.326;2023-07-13T15:10:18;9.05;;;4.20;;
12429;SDS011;6279;42.192;24.326;2023-07-13T15:12:47;7.32;;;4.13;;
12429;SDS011;6279;42.192;24.326;2023-07-13T15:15:13;10.10;;;4.18;;
12429;SDS011;6279;42.192;24.326;2023-07-13T15:17:40;8.05;;;4.35;;
12429;SDS011;6279;42.192;24.326;2023-07-13T15:22:49;8.10;;;4.25;;
12429;SDS011;6279;42.192;24.326;2023-07-13T15:25:20;7.22;;;4.50;;
12429;SDS011;6279;42.192;24.326;2023-07-13T15:27:47;9.05;;;4.35;;